Bonaire, Bonaire

12:59 AM AST op 24 november 2014 (GMT -0400)
Nikiboko | Change Station
CLOSE
Current Station
Persoonlijk weerstation
Location: Bonaire, Bonaire
Geometrische hoogte: 33 ft
Nabije weerstations

Hoogte 33 ft 12.15 °N, 68.27 °W | Updated 14 minutes ago

Scattered Clouds
Licht bewolkt
81.3 °F
Voelt als 87 °F
N
5.0
Wind Variabel Wind van ZZO
Gusts 13.0 mijl/u

Vandaag
Hoog -- | Laag -- °F
--% Kans op neerslag
Gisteren
Hoog -- | Laag -- °F
Precip. -- inches
6:34 AM 6:04 PM
Wassende halvemaan, 3% visible
Druk 29.89 inches
Zicht 6.2 mijlen
Wolken Licht bewolkt 1600 ft
Warmteindex 87 °F
Dauwpunt 75 °F
Vochtigheid 81%
Neerslag 0.00 inches
Dikte sneeuw Niet beschikbaar.
UV 0 van de 12
Pollen Niet beschikbaar.
Luchtkwaliteit Niet beschikbaar.
Flu Activity Niet beschikbaar.
METAR TNCC 240400Z 10014KT 9999 SCT016 28/24 Q1012 NOSIG

More Conditions Fewer Conditions

Druk 29.89 inches
Zicht 6.2 mijlen
Wolken Licht bewolkt 1600 ft
Warmteindex 87 °F
Dauwpunt 75 °F
Vochtigheid 81%
Neerslag 0.00 inches
Dikte sneeuw Niet beschikbaar.
UV 0 van de 12
Pollen Niet beschikbaar.
Luchtkwaliteit Niet beschikbaar.
Flu Activity Niet beschikbaar.
METAR TNCC 240400Z 10014KT 9999 SCT016 28/24 Q1012 NOSIG

More Conditions Fewer Conditions

10-Day Weather Forecast

Almanac

Astronomie

Nov. 24, 2014 Opkomst Ondergang
Werkelijke tijd
Burgerlijke schemering
Nautische schemering
Astronomische schemering
Maan
Golflengte van het zichtbare licht
Daglengte
Tomorrow will be .
, % of the Moon is Illuminated

Extremen vandaag

Country Highs Country Lows

Community

WunderPhotos

Upload Photos

1,773,267 foto’s ge-upload!

WunderBlogs® & News

Nearby

Luchtkwaliteit

  Luchtkwaliteit LK-index Verontreinigende stof
Not available.

Dikte sneeuw

Station Depth Geometrische hoogte

Aardbevingen

Stad Distance Mag. Time & Date
Minimum magnitude displayed is 2.5.

Watertemperatuur langs de kust

Plaats Temperatuur

Nabije weerstations